Dades de l'estació automàtica Sabadell - Parc Agrari
Resum diari
17:30 TU| Temperatura mitjana | 13.9 °C | |
|---|---|---|
| Temperatura màxima | 21.4 °C | 13:10 TU |
| Temperatura mínima | 8.1 °C | 4:38 TU |
| Humitat relativa mitjana | 85% | |
| Precipitació acumulada | 7.0 mm | |
| Ratxa màxima del vent (10 m) | 40.0 km/h - 288º | 16:00 TU |
| Pressió atmosfèrica mitjana | 1011.5 hPa | |
| Irradiació solar global | 17.6 MJ/m2 | |
El tram horari està expressat en Temps Universal (TU). Cal sumar una hora en horari d'hivern i dues en horari d'estiu per passar a l'hora oficial.
Sabadell - Parc Agrari
| Municipi | Sabadell |
|---|---|
| Comarca | Vallès Occidental |
| Altitud | 259 m |
| Data alta | 23.10.2008 |
| Estat actual | Operativa |
| Període TU |
TM °C |
TX °C |
TN °C |
HRM % |
PPT mm |
VVM (10 m) km/h |
DVM (10 m) graus |
VVX (10 m) km/h |
PM hPa |
RS W/m2 |
|---|---|---|---|---|---|---|---|---|---|---|
| 00:00 - 00:30 | 9.8 | 10.1 | 9.6 | 100 | 0.0 | 5.0 | 266 | 10.1 | 1012.6 | 0 |
| 00:30 - 01:00 | 9.3 | 9.6 | 9.0 | 100 | 0.0 | 4.3 | 287 | 6.5 | 1012.7 | 0 |
| 01:00 - 01:30 | 9.3 | 9.5 | 8.8 | 100 | 0.0 | 5.0 | 298 | 8.3 | 1012.6 | 0 |
| 01:30 - 02:00 | 9.0 | 9.3 | 8.8 | 100 | 0.0 | 4.7 | 326 | 9.0 | 1012.4 | 0 |
| 02:00 - 02:30 | 8.6 | 8.9 | 8.5 | 100 | 0.0 | 4.7 | 260 | 9.4 | 1012.6 | 0 |
| 02:30 - 03:00 | 8.8 | 9.1 | 8.6 | 100 | 0.1 | 5.8 | 258 | 11.5 | 1012.6 | 0 |
| 03:00 - 03:30 | 9.3 | 9.9 | 8.5 | 100 | 0.0 | 4.7 | 310 | 10.1 | 1012.5 | 0 |
| 03:30 - 04:00 | 8.4 | 8.7 | 8.1 | 100 | 0.0 | 4.7 | 312 | 7.2 | 1012.6 | 0 |
| 04:00 - 04:30 | 8.7 | 9.1 | 8.2 | 100 | 0.0 | 5.0 | 296 | 10.1 | 1012.7 | 0 |
| 04:30 - 05:00 | 8.3 | 8.7 | 8.1 | 100 | 0.0 | 3.2 | 313 | 7.6 | 1012.6 | 7 |
| 05:00 - 05:30 | 8.7 | 9.4 | 8.2 | 100 | 0.0 | 1.4 | 5 | 5.8 | 1012.5 | 54 |
| 05:30 - 06:00 | 10.2 | 12.1 | 9.3 | 100 | 0.0 | 3.6 | 310 | 6.8 | 1012.5 | 125 |
| 06:00 - 06:30 | 12.9 | 13.8 | 12.2 | 97 | 0.0 | 6.1 | 8 | 11.5 | 1012.1 | 235 |
| 06:30 - 07:00 | 13.6 | 14.4 | 13.0 | 91 | 0.0 | 6.5 | 25 | 14.0 | 1012.0 | 215 |
| 07:00 - 07:30 | 14.8 | 16.5 | 13.3 | 84 | 0.0 | 1.4 | 20 | 4.7 | 1012.0 | 390 |
| 07:30 - 08:00 | 16.6 | 17.0 | 16.3 | 76 | 0.0 | 5.0 | 42 | 13.0 | 1011.6 | 528 |
| 08:00 - 08:30 | 16.0 | 17.3 | 15.1 | 78 | 0.0 | 4.3 | 58 | 10.4 | 1011.6 | 215 |
| 08:30 - 09:00 | 14.9 | 15.1 | 14.8 | 87 | 0.0 | 3.2 | 165 | 7.6 | 1012.2 | 105 |
| 09:00 - 09:30 | 15.4 | 16.2 | 14.8 | 86 | 0.0 | 6.1 | 39 | 11.5 | 1011.5 | 267 |
| 09:30 - 10:00 | 17.3 | 18.1 | 16.3 | 74 | 0.0 | 4.0 | 68 | 9.7 | 1011.4 | 554 |
| 10:00 - 10:30 | 16.4 | 17.9 | 15.5 | 84 | 0.2 | 9.0 | 167 | 23.4 | 1011.9 | 255 |
| 10:30 - 11:00 | 16.8 | 17.6 | 15.8 | 82 | 0.1 | 3.2 | 18 | 10.1 | 1011.7 | 493 |
| 11:00 - 11:30 | 17.9 | 19.1 | 17.2 | 72 | 0.0 | 4.7 | 110 | 12.6 | 1011.3 | 644 |
| 11:30 - 12:00 | 19.2 | 20.0 | 18.5 | 67 | 0.0 | 6.1 | 126 | 15.1 | 1011.0 | 875 |
| 12:00 - 12:30 | 20.1 | 20.6 | 19.5 | 61 | 0.0 | 9.0 | 133 | 19.1 | 1010.6 | 848 |
| 12:30 - 13:00 | 20.4 | 21.0 | 19.6 | 55 | 0.0 | 8.3 | 140 | 20.9 | 1010.3 | 785 |
| 13:00 - 13:30 | 20.4 | 21.4 | 19.6 | 56 | 0.0 | 11.9 | 150 | 24.5 | 1010.1 | 661 |
| 13:30 - 14:00 | 20.4 | 21.0 | 19.4 | 57 | 0.0 | 10.1 | 147 | 22.7 | 1009.8 | 631 |
| 14:00 - 14:30 | 19.9 | 20.3 | 19.1 | 62 | 0.0 | 13.0 | 144 | 24.1 | 1009.6 | 796 |
| 14:30 - 15:00 | 19.9 | 20.5 | 19.1 | 61 | 0.0 | 14.0 | 132 | 24.1 | 1009.4 | 721 |
| 15:00 - 15:30 | 18.0 | 18.9 | 17.4 | 64 | 0.0 | 11.9 | 126 | 20.9 | 1009.7 | 172 |
| 15:30 - 16:00 | 16.8 | 17.4 | 13.6 | 72 | 0.7 | 13.3 | 133 | 38.9 | 1010.1 | 53 |
| 16:00 - 16:30 | 9.8 | 13.3 | 9.1 | 99 | 5.2 | 12.6 | 346 | 40.0 | 1011.6 | 54 |
| 16:30 - 17:00 | 10.5 | 11.0 | 10.0 | 100 | 0.2 | 5.8 | 311 | 10.8 | 1011.5 | 44 |
| 17:00 - 17:30 | 11.4 | 11.8 | 11.0 | 100 | 0.2 | 5.8 | 272 | 15.1 | 1010.9 | 17 |
| 17:30 - 18:00 | 11.9 | 12.1 | 11.4 | 100 | 0.3 | 5.4 | 327 | 14.0 | 1010.7 | 19 |
Les dades en taronja només han passat un control de qualitat automàtic. Resta pendent la seva validació definitiva.